Capt. George Brumley — WDI3717 — position and weather

sailwx.info

Track history (hours):
 
Tides and Currents Weather Stations Pressure Air Temp Water Temp Dewpoint Dewpoint Depression Visibility Wind Speed Wind Dir Waves Ship Positions

Capt. George Brumley

Owner: Genesis Marine, LLC, Houston, TX. More information available from US FCC via Universal Licensing System and Coast Guard Vessel Documentation Center.

Last reported at 2017-Sep-19 10:44 UTC. Time now 2017-Sep-19 15:24 UTC.
Position N 29°33' W 094°54'.

Length 25 m; draft 3 m.

Type: Other ship. MMSI: 367691190.

Date/timePositionNaut miles runAvg speedWind from/ knotsBaromVisibWave heightAir tempDewpointWater temp
2017-Sep-19 10:44N 29°33' W 094°54'2 8.6
2017-Sep-19 10:30N 29°34' W 094°55'4 8.8
2017-Sep-19 10:00N 29°38' W 094°58'4 8.8
2017-Sep-19 09:30N 29°42' W 095°00'4 7.5
2017-Sep-19 08:56N 29°45' W 095°04'2 3.7
2017-Sep-19 08:15N 29°47' W 095°04'0 0.0
2017-Sep-19 07:47N 29°47' W 095°04'0 0.2
2017-Sep-19 07:30N 29°47' W 095°04'0 0.0
2017-Sep-19 06:12N 29°47' W 095°04'0 0.0
2017-Sep-19 04:39N 29°47' W 095°04'2 4.2
2017-Sep-19 04:13N 29°46' W 095°05'1 0.1
2017-Sep-18 17:58N 29°46' W 095°06'0 0.0
2017-Sep-18 17:21N 29°46' W 095°06'0 0.0
2017-Sep-18 17:00N 29°46' W 095°06'0 0.0
2017-Sep-18 16:27N 29°46' W 095°06'0 0.0
2017-Sep-18 12:30N 29°46' W 095°06'0 0.0
2017-Sep-18 11:56N 29°46' W 095°06'0 0.0
2017-Sep-18 11:29N 29°46' W 095°06'1 0.2
2017-Sep-18 09:07N 29°46' W 095°06'0 0.2
2017-Sep-18 07:17N 29°45' W 095°06'3 2.4
2017-Sep-18 06:14N 29°47' W 095°04'2 3.4
2017-Sep-18 05:39N 29°46' W 095°05'0 0.0
2017-Sep-16 23:47N 29°46' W 095°06'1 0.2
2017-Sep-16 20:50N 29°46' W 095°05'2 0.4
2017-Sep-16 16:07N 29°44' W 095°07'1 6.8
2017-Sep-16 15:54N 29°44' W 095°08'6 0.7
2017-Sep-16 07:08N 29°43' W 095°15'7 4.6
2017-Sep-16 05:31N 29°44' W 095°07'0 7.0
2017-Sep-16 05:30N 29°44' W 095°07'1 0.9
2017-Sep-16 03:59N 29°45' W 095°06'3 4.3
2017-Sep-16 03:23N 29°47' W 095°04'0 0.1
2017-Sep-16 02:59N 29°47' W 095°04'2 0.6
2017-Sep-15 22:44N 29°45' W 095°04'1 1.2
2017-Sep-15 21:41N 29°44' W 095°03'0 0.2
2017-Sep-15 21:29N 29°44' W 095°03'0 0.0
2017-Sep-15 20:55N 29°44' W 095°03'0 0.0
2017-Sep-15 20:27N 29°44' W 095°03'0 0.0
2017-Sep-15 19:57N 29°44' W 095°03'0 0.0
2017-Sep-15 17:25N 29°44' W 095°03'0 0.0
2017-Sep-15 15:11N 29°44' W 095°03'0 0.0
2017-Sep-15 14:57N 29°44' W 095°03'0 0.0
2017-Sep-15 14:13N 29°44' W 095°03'0 0.0
2017-Sep-15 13:54N 29°44' W 095°03'0 0.0
2017-Sep-15 13:22N 29°44' W 095°03'0 0.0
2017-Sep-15 12:59N 29°44' W 095°03'0 0.0
2017-Sep-15 12:28N 29°44' W 095°03'0 0.0
2017-Sep-15 12:00N 29°44' W 095°03'0 0.0
2017-Sep-15 11:30N 29°44' W 095°03'0 0.0
2017-Sep-15 11:00N 29°44' W 095°03'0 0.0
2017-Sep-15 10:29N 29°44' W 095°03'0 0.0
2017-Sep-15 09:59N 29°44' W 095°03'0 0.0
2017-Sep-15 09:26N 29°44' W 095°03'0 0.0
2017-Sep-15 09:00N 29°44' W 095°03'0 0.0
2017-Sep-15 08:30N 29°44' W 095°03'0 0.0
2017-Sep-15 07:59N 29°44' W 095°03'0 0.1
2017-Sep-15 07:27N 29°44' W 095°03'0 0.1
2017-Sep-15 07:00N 29°44' W 095°03'0 0.0
2017-Sep-15 06:30N 29°44' W 095°03'0 0.0
2017-Sep-15 06:00N 29°44' W 095°03'0 0.0
2017-Sep-15 05:29N 29°44' W 095°03'0 0.0
2017-Sep-15 04:51N 29°44' W 095°03'0 0.0
2017-Sep-15 04:22N 29°44' W 095°03'0 0.0
2017-Sep-15 04:00N 29°44' W 095°03'0 0.1
2017-Sep-15 03:30N 29°44' W 095°03'1 1.7
2017-Sep-15 02:58N 29°45' W 095°04'2 3.8
2017-Sep-15 02:30N 29°46' W 095°05'2 3.0
2017-Sep-15 01:58N 29°47' W 095°04'0 0.1
2017-Sep-15 01:29N 29°47' W 095°04'0 0.1
2017-Sep-15 01:00N 29°47' W 095°04'2 1.1
2017-Sep-14 23:09N 29°46' W 095°05'1 0.2
2017-Sep-14 20:32N 29°46' W 095°06'0 5.4
2017-Sep-14 20:29N 29°46' W 095°05'2 0.8
2017-Sep-14 17:48N 29°47' W 095°04'0 0.2
2017-Sep-14 17:27N 29°47' W 095°04'0 0.1
2017-Sep-14 16:52N 29°47' W 095°04'2 2.5
2017-Sep-14 16:06N 29°46' W 095°05'0 0.3
2017-Sep-14 15:08N 29°46' W 095°05'1 5.7
2017-Sep-14 14:56N 29°45' W 095°06'0 0.5
2017-Sep-14 14:30N 29°45' W 095°06'0 0.0
2017-Sep-14 13:59N 29°45' W 095°06'0 0.0
2017-Sep-14 13:29N 29°45' W 095°06'0 0.0
2017-Sep-14 13:00N 29°45' W 095°06'1 1.5
2017-Sep-14 12:23N 29°46' W 095°05'1 2.0
2017-Sep-14 11:57N 29°46' W 095°06'0 0.0
2017-Sep-14 11:30N 29°46' W 095°06'0 0.0
2017-Sep-14 10:46N 29°46' W 095°06'0 0.0
2017-Sep-14 10:18N 29°46' W 095°06'0 0.0
2017-Sep-14 09:55N 29°46' W 095°06'0 0.0
2017-Sep-14 09:24N 29°46' W 095°06'0 0.0
2017-Sep-14 09:00N 29°46' W 095°06'0 0.0
2017-Sep-14 08:30N 29°46' W 095°06'0 0.0
2017-Sep-14 07:58N 29°46' W 095°06'0 0.0
2017-Sep-14 07:28N 29°46' W 095°06'0 0.0
2017-Sep-14 06:59N 29°46' W 095°06'0 0.0
2017-Sep-14 06:30N 29°46' W 095°06'0 0.0
2017-Sep-14 06:00N 29°46' W 095°06'0 0.0
2017-Sep-14 05:30N 29°46' W 095°06'0 0.0
2017-Sep-14 04:52N 29°46' W 095°06'0 0.0
2017-Sep-14 03:51N 29°46' W 095°06'0 0.0
2017-Sep-14 03:22N 29°46' W 095°06'0 0.0
2017-Sep-14 02:58N 29°46' W 095°06'0 0.0
2017-Sep-14 02:28N 29°46' W 095°06'1 1.1
2017-Sep-14 01:58N 29°46' W 095°06'3 4.9
2017-Sep-14 01:27N 29°44' W 095°08'3 6.7
2017-Sep-14 01:00N 29°45' W 095°11'0 0.1
2017-Sep-13 22:11N 29°45' W 095°12'2 8.1
2017-Sep-13 21:56N 29°44' W 095°09'3 7.6
2017-Sep-13 21:29N 29°45' W 095°06'3 4.4
2017-Sep-13 20:54N 29°47' W 095°04'0 0.1
2017-Sep-13 20:19N 29°47' W 095°04'0 0.2
2017-Sep-13 20:00N 29°47' W 095°04'0 0.0
2017-Sep-13 19:30N 29°47' W 095°04'2 2.1
2017-Sep-13 18:35N 29°46' W 095°05'1 0.0
2017-Sep-12 13:35N 29°46' W 095°06'0 0.0
2017-Sep-12 13:30N 29°46' W 095°06'0 0.0
2017-Sep-12 13:00N 29°46' W 095°06'0 0.0
2017-Sep-12 12:28N 29°46' W 095°06'0 0.0
2017-Sep-12 11:59N 29°46' W 095°06'0 0.0
2017-Sep-12 11:29N 29°46' W 095°06'0 0.0
2017-Sep-12 11:00N 29°46' W 095°06'0 0.0
2017-Sep-12 10:30N 29°46' W 095°06'0 0.0
2017-Sep-12 10:00N 29°46' W 095°06'0 0.0
2017-Sep-12 09:30N 29°46' W 095°06'0 0.0
2017-Sep-12 08:57N 29°46' W 095°06'0 0.0
2017-Sep-12 08:30N 29°46' W 095°06'0 0.0
2017-Sep-12 08:00N 29°46' W 095°06'0 0.0
2017-Sep-12 07:29N 29°46' W 095°06'0 0.0
2017-Sep-12 07:00N 29°46' W 095°06'0 0.0
2017-Sep-12 06:30N 29°46' W 095°06'1 1.8
2017-Sep-12 05:57N 29°46' W 095°05'2 4.3
2017-Sep-12 05:30N 29°47' W 095°04'0 0.1
2017-Sep-12 03:24N 29°47' W 095°04'4 6.1
2017-Sep-12 02:50N 29°44' W 095°07'1 1.2
2017-Sep-12 02:07N 29°44' W 095°07'1 6.1
2017-Sep-12 02:00N 29°44' W 095°07'1 0.8
2017-Sep-12 00:21N 29°45' W 095°06'2 0.7
2017-Sep-11 21:29N 29°45' W 095°04'3 5.5
2017-Sep-11 20:58N 29°43' W 095°01'2 5.3
2017-Sep-11 20:30N 29°41' W 094°59'3 6.0
2017-Sep-11 20:00N 29°38' W 094°58'3 6.4
2017-Sep-11 19:30N 29°35' W 094°56'3 6.6
2017-Sep-11 19:00N 29°33' W 094°54'3 6.3
2017-Sep-11 18:28N 29°30' W 094°52'  
Track history (hours):
 
Tides and Currents Weather Stations Pressure Air Temp Water Temp Dewpoint Dewpoint Depression Visibility Wind Speed Wind Dir Waves Ship Positions

Capt. George Brumley

Owner: Genesis Marine, LLC, Houston, TX. More information available from US FCC via Universal Licensing System and Coast Guard Vessel Documentation Center.

Last reported at 2017-Sep-19 10:44 UTC. Time now 2017-Sep-19 15:24 UTC.
Position N 29°33' W 094°54'.

Length 25 m; draft 3 m.

Type: Other ship. MMSI: 367691190.

Date/timePositionNaut miles runAvg speedWind from/ knotsBaromVisibWave heightAir tempDewpointWater temp
2017-Sep-19 10:44N 29°33' W 094°54'2 8.6
2017-Sep-19 10:30N 29°34' W 094°55'4 8.8
2017-Sep-19 10:00N 29°38' W 094°58'4 8.8
2017-Sep-19 09:30N 29°42' W 095°00'4 7.5
2017-Sep-19 08:56N 29°45' W 095°04'2 3.7
2017-Sep-19 08:15N 29°47' W 095°04'0 0.0
2017-Sep-19 07:47N 29°47' W 095°04'0 0.2
2017-Sep-19 07:30N 29°47' W 095°04'0 0.0
2017-Sep-19 06:12N 29°47' W 095°04'0 0.0
2017-Sep-19 04:39N 29°47' W 095°04'2 4.2
2017-Sep-19 04:13N 29°46' W 095°05'1 0.1
2017-Sep-18 17:58N 29°46' W 095°06'0 0.0
2017-Sep-18 17:21N 29°46' W 095°06'0 0.0
2017-Sep-18 17:00N 29°46' W 095°06'0 0.0
2017-Sep-18 16:27N 29°46' W 095°06'0 0.0
2017-Sep-18 12:30N 29°46' W 095°06'0 0.0
2017-Sep-18 11:56N 29°46' W 095°06'0 0.0
2017-Sep-18 11:29N 29°46' W 095°06'1 0.2
2017-Sep-18 09:07N 29°46' W 095°06'0 0.2
2017-Sep-18 07:17N 29°45' W 095°06'3 2.4
2017-Sep-18 06:14N 29°47' W 095°04'2 3.4
2017-Sep-18 05:39N 29°46' W 095°05'0 0.0
2017-Sep-16 23:47N 29°46' W 095°06'1 0.2
2017-Sep-16 20:50N 29°46' W 095°05'2 0.4
2017-Sep-16 16:07N 29°44' W 095°07'1 6.8
2017-Sep-16 15:54N 29°44' W 095°08'6 0.7
2017-Sep-16 07:08N 29°43' W 095°15'7 4.6
2017-Sep-16 05:31N 29°44' W 095°07'0 7.0
2017-Sep-16 05:30N 29°44' W 095°07'1 0.9
2017-Sep-16 03:59N 29°45' W 095°06'3 4.3
2017-Sep-16 03:23N 29°47' W 095°04'0 0.1
2017-Sep-16 02:59N 29°47' W 095°04'2 0.6
2017-Sep-15 22:44N 29°45' W 095°04'1 1.2
2017-Sep-15 21:41N 29°44' W 095°03'0 0.2
2017-Sep-15 21:29N 29°44' W 095°03'0 0.0
2017-Sep-15 20:55N 29°44' W 095°03'0 0.0
2017-Sep-15 20:27N 29°44' W 095°03'0 0.0
2017-Sep-15 19:57N 29°44' W 095°03'0 0.0
2017-Sep-15 17:25N 29°44' W 095°03'0 0.0
2017-Sep-15 15:11N 29°44' W 095°03'0 0.0
2017-Sep-15 14:57N 29°44' W 095°03'0 0.0
2017-Sep-15 14:13N 29°44' W 095°03'0 0.0
2017-Sep-15 13:54N 29°44' W 095°03'0 0.0
2017-Sep-15 13:22N 29°44' W 095°03'0 0.0
2017-Sep-15 12:59N 29°44' W 095°03'0 0.0
2017-Sep-15 12:28N 29°44' W 095°03'0 0.0
2017-Sep-15 12:00N 29°44' W 095°03'0 0.0
2017-Sep-15 11:30N 29°44' W 095°03'0 0.0
2017-Sep-15 11:00N 29°44' W 095°03'0 0.0
2017-Sep-15 10:29N 29°44' W 095°03'0 0.0
2017-Sep-15 09:59N 29°44' W 095°03'0 0.0
2017-Sep-15 09:26N 29°44' W 095°03'0 0.0
2017-Sep-15 09:00N 29°44' W 095°03'0 0.0
2017-Sep-15 08:30N 29°44' W 095°03'0 0.0
2017-Sep-15 07:59N 29°44' W 095°03'0 0.1
2017-Sep-15 07:27N 29°44' W 095°03'0 0.1
2017-Sep-15 07:00N 29°44' W 095°03'0 0.0
2017-Sep-15 06:30N 29°44' W 095°03'0 0.0
2017-Sep-15 06:00N 29°44' W 095°03'0 0.0
2017-Sep-15 05:29N 29°44' W 095°03'0 0.0
2017-Sep-15 04:51N 29°44' W 095°03'0 0.0
2017-Sep-15 04:22N 29°44' W 095°03'0 0.0
2017-Sep-15 04:00N 29°44' W 095°03'0 0.1
2017-Sep-15 03:30N 29°44' W 095°03'1 1.7
2017-Sep-15 02:58N 29°45' W 095°04'2 3.8
2017-Sep-15 02:30N 29°46' W 095°05'2 3.0
2017-Sep-15 01:58N 29°47' W 095°04'0 0.1
2017-Sep-15 01:29N 29°47' W 095°04'0 0.1
2017-Sep-15 01:00N 29°47' W 095°04'2 1.1
2017-Sep-14 23:09N 29°46' W 095°05'1 0.2
2017-Sep-14 20:32N 29°46' W 095°06'0 5.4
2017-Sep-14 20:29N 29°46' W 095°05'2 0.8
2017-Sep-14 17:48N 29°47' W 095°04'0 0.2
2017-Sep-14 17:27N 29°47' W 095°04'0 0.1
2017-Sep-14 16:52N 29°47' W 095°04'2 2.5
2017-Sep-14 16:06N 29°46' W 095°05'0 0.3
2017-Sep-14 15:08N 29°46' W 095°05'1 5.7
2017-Sep-14 14:56N 29°45' W 095°06'0 0.5
2017-Sep-14 14:30N 29°45' W 095°06'0 0.0
2017-Sep-14 13:59N 29°45' W 095°06'0 0.0
2017-Sep-14 13:29N 29°45' W 095°06'0 0.0
2017-Sep-14 13:00N 29°45' W 095°06'1 1.5
2017-Sep-14 12:23N 29°46' W 095°05'1 2.0
2017-Sep-14 11:57N 29°46' W 095°06'0 0.0
2017-Sep-14 11:30N 29°46' W 095°06'0 0.0
2017-Sep-14 10:46N 29°46' W 095°06'0 0.0
2017-Sep-14 10:18N 29°46' W 095°06'0 0.0
2017-Sep-14 09:55N 29°46' W 095°06'0 0.0
2017-Sep-14 09:24N 29°46' W 095°06'0 0.0
2017-Sep-14 09:00N 29°46' W 095°06'0 0.0
2017-Sep-14 08:30N 29°46' W 095°06'0 0.0
2017-Sep-14 07:58N 29°46' W 095°06'0 0.0
2017-Sep-14 07:28N 29°46' W 095°06'0 0.0
2017-Sep-14 06:59N 29°46' W 095°06'0 0.0
2017-Sep-14 06:30N 29°46' W 095°06'0 0.0
2017-Sep-14 06:00N 29°46' W 095°06'0 0.0
2017-Sep-14 05:30N 29°46' W 095°06'0 0.0
2017-Sep-14 04:52N 29°46' W 095°06'0 0.0
2017-Sep-14 03:51N 29°46' W 095°06'0 0.0
2017-Sep-14 03:22N 29°46' W 095°06'0 0.0
2017-Sep-14 02:58N 29°46' W 095°06'0 0.0
2017-Sep-14 02:28N 29°46' W 095°06'1 1.1
2017-Sep-14 01:58N 29°46' W 095°06'3 4.9
2017-Sep-14 01:27N 29°44' W 095°08'3 6.7
2017-Sep-14 01:00N 29°45' W 095°11'0 0.1
2017-Sep-13 22:11N 29°45' W 095°12'2 8.1
2017-Sep-13 21:56N 29°44' W 095°09'3 7.6
2017-Sep-13 21:29N 29°45' W 095°06'3 4.4
2017-Sep-13 20:54N 29°47' W 095°04'0 0.1
2017-Sep-13 20:19N 29°47' W 095°04'0 0.2
2017-Sep-13 20:00N 29°47' W 095°04'0 0.0
2017-Sep-13 19:30N 29°47' W 095°04'2 2.1
2017-Sep-13 18:35N 29°46' W 095°05'1 0.0
2017-Sep-12 13:35N 29°46' W 095°06'0 0.0
2017-Sep-12 13:30N 29°46' W 095°06'0 0.0
2017-Sep-12 13:00N 29°46' W 095°06'0 0.0
2017-Sep-12 12:28N 29°46' W 095°06'0 0.0
2017-Sep-12 11:59N 29°46' W 095°06'0 0.0
2017-Sep-12 11:29N 29°46' W 095°06'0 0.0
2017-Sep-12 11:00N 29°46' W 095°06'0 0.0
2017-Sep-12 10:30N 29°46' W 095°06'0 0.0
2017-Sep-12 10:00N 29°46' W 095°06'0 0.0
2017-Sep-12 09:30N 29°46' W 095°06'0 0.0
2017-Sep-12 08:57N 29°46' W 095°06'0 0.0
2017-Sep-12 08:30N 29°46' W 095°06'0 0.0
2017-Sep-12 08:00N 29°46' W 095°06'0 0.0
2017-Sep-12 07:29N 29°46' W 095°06'0 0.0
2017-Sep-12 07:00N 29°46' W 095°06'0 0.0
2017-Sep-12 06:30N 29°46' W 095°06'1 1.8
2017-Sep-12 05:57N 29°46' W 095°05'2 4.3
2017-Sep-12 05:30N 29°47' W 095°04'0 0.1
2017-Sep-12 03:24N 29°47' W 095°04'4 6.1
2017-Sep-12 02:50N 29°44' W 095°07'1 1.2
2017-Sep-12 02:07N 29°44' W 095°07'1 6.1
2017-Sep-12 02:00N 29°44' W 095°07'1 0.8
2017-Sep-12 00:21N 29°45' W 095°06'2 0.7
2017-Sep-11 21:29N 29°45' W 095°04'3 5.5
2017-Sep-11 20:58N 29°43' W 095°01'2 5.3
2017-Sep-11 20:30N 29°41' W 094°59'3 6.0
2017-Sep-11 20:00N 29°38' W 094°58'3 6.4
2017-Sep-11 19:30N 29°35' W 094°56'3 6.6
2017-Sep-11 19:00N 29°33' W 094°54'3 6.3
2017-Sep-11 18:28N 29°30' W 094°52'  

Dump ship's entire track history